Time;durP1;ratioP1;P1;durP2;ratioP2;P2;SDS_P1;SDS_P2;PMS_P1;PMS_P2;Temp;Humidity;BMP_temperature;BMP_pressure;BME280_temperature;BME280_humidity;BME280_pressure;Samples;Min_cycle;Max_cycle;Signal;HPM_P1;HPM_P2
2023/08/15 00:00:43;;;;;;;8.18;6.03;;;29.60;99.90;;;;;;5055006;28;20474;-68
2023/08/15 00:03:10;;;;;;;7.20;6.55;;;29.60;99.90;;;;;;5050534;28;20155;-68
2023/08/15 00:05:37;;;;;;;10.05;5.85;;;29.50;99.90;;;;;;5047652;28;20083;-68
2023/08/15 00:08:03;;;;;;;8.70;6.40;;;29.40;99.90;;;;;;5050241;28;20025;-68
2023/08/15 00:10:28;;;;;;;6.93;6.07;;;29.40;99.90;;;;;;5050154;28;20035;-68
2023/08/15 00:12:54;;;;;;;6.18;5.70;;;;;;;;;;5051631;28;20029;-68
2023/08/15 00:15:20;;;;;;;6.97;6.28;;;;;;;;;;5051885;28;20048;-68
2023/08/15 00:17:46;;;;;;;7.15;6.10;;;;;;;;;;5053208;28;20538;-68
2023/08/15 00:20:13;;;;;;;7.30;5.90;;;;;;;;;;5050888;28;20049;-68
2023/08/15 00:22:39;;;;;;;7.88;6.32;;;;;;;;;;5053068;28;20080;-68
2023/08/15 00:25:05;;;;;;;7.70;6.18;;;;;;;;;;5050640;28;20090;-68
2023/08/15 00:27:31;;;;;;;6.53;5.90;;;;;;;;;;5053465;28;20025;-68
2023/08/15 00:29:57;;;;;;;6.05;5.53;;;;;;;;;;5050659;28;20491;-68
2023/08/15 00:32:25;;;;;;;6.35;5.75;;;;;;;;;;5051237;28;20453;-68
2023/08/15 00:34:51;;;;;;;6.47;5.85;;;;;;;;;;5051714;28;20033;-68
2023/08/15 00:37:17;;;;;;;7.00;5.47;;;;;;;;;;5053984;28;20025;-67
2023/08/15 00:39:43;;;;;;;6.68;6.07;;;;;;;;;;5047139;28;20538;-67
2023/08/15 00:42:09;;;;;;;6.68;5.90;;;;;;;;;;5045456;28;20070;-67
2023/08/15 00:44:37;;;;;;;6.75;5.60;;;;;;;;;;5043586;28;20140;-68
2023/08/15 00:47:06;;;;;;;5.82;5.43;;;;;;;;;;5044018;28;20484;-68
2023/08/15 00:49:32;;;;;;;6.53;5.53;;;;;;;;;;5051949;28;20036;-67
2023/08/15 00:51:58;;;;;;;6.25;5.32;;;;;;;;;;5051615;28;20063;-67
2023/08/15 00:54:24;;;;;;;6.85;5.78;;;;;;;;;;5052265;28;20017;-67
2023/08/15 00:56:50;;;;;;;6.07;5.53;;;;;;;;;;5047980;28;20031;-67
2023/08/15 00:59:16;;;;;;;7.97;5.55;;;;;;;;;;5052547;28;20107;-68
2023/08/15 01:01:42;;;;;;;5.60;5.20;;;;;;;;;;5049645;28;20029;-67
2023/08/15 01:04:08;;;;;;;5.38;4.97;;;;;;;;;;5048210;28;20049;-67
2023/08/15 01:06:34;;;;;;;8.38;5.05;;;;;;;;;;5042157;28;20108;-68
2023/08/15 01:09:01;;;;;;;5.57;5.07;;;;;;;;;;5048866;28;20072;-67
2023/08/15 01:11:31;;;;;;;6.35;5.57;;;;;;;;;;5048985;28;20027;-67
2023/08/15 01:14:00;;;;;;;7.25;5.75;;;;;;;;;;5047070;28;20028;-67
2023/08/15 01:16:29;;;;;;;5.97;5.57;;;;;;;;;;5048586;28;20045;-67
2023/08/15 01:19:02;;;;;;;6.32;5.20;;;;;;;;;;5050407;28;20526;-67
2023/08/15 01:21:33;;;;;;;5.70;5.20;;;;;;;;;;5050064;28;20384;-67
2023/08/15 01:23:59;;;;;;;8.52;5.82;;;;;;;;;;5050928;28;20045;-67
2023/08/15 01:26:25;;;;;;;7.97;6.60;;;;;;;;;;5047301;28;20462;-67
2023/08/15 01:28:51;;;;;;;6.00;5.45;;;;;;;;;;5047748;28;20033;-67
2023/08/15 01:31:20;;;;;;;6.20;5.40;;;;;;;;;;5052007;28;20025;-68
2023/08/15 01:34:02;;;;;;;5.93;5.32;;;;;;;;;;5051003;28;20386;-67
2023/08/15 01:36:33;;;;;;;5.97;5.20;;;;;;;;;;5050061;28;20037;-68
2023/08/15 01:39:37;;;;;;;6.78;4.78;;;;;;;;;;5051824;28;20115;-67
2023/08/15 01:42:03;;;;;;;6.65;5.40;;;;;;;;;;5048773;28;20040;-68
2023/08/15 01:44:31;;;;;;;5.53;5.03;;;;;;;;;;5051664;28;20045;-68
2023/08/15 01:47:00;;;;;;;7.50;5.13;;;;;;;;;;5050130;28;20017;-68
2023/08/15 01:49:32;;;;;;;5.65;4.90;;;;;;;;;;5039968;28;20025;-68
2023/08/15 01:51:58;;;;;;;7.22;4.97;;;;;;;;;;5050916;28;20067;-68
2023/08/15 01:54:24;;;;;;;9.82;5.30;;;;;;;;;;5051089;28;20029;-68
2023/08/15 01:56:50;;;;;;;5.50;4.95;;;;;;;;;;5048887;28;20037;-68
2023/08/15 01:59:16;;;;;;;4.60;4.30;;;;;;;;;;5052027;28;20031;-68
2023/08/15 02:01:42;;;;;;;5.82;4.75;;;;;;;;;;5053003;28;20071;-68
2023/08/15 02:04:11;;;;;;;7.20;4.68;;;;;;;;;;5050291;28;20502;-68
2023/08/15 02:06:40;;;;;;;5.90;5.50;;;;;;;;;;5047951;28;20394;-68
2023/08/15 02:09:06;;;;;;;5.80;4.72;;;;;;;;;;5051486;28;20029;-68
2023/08/15 02:11:32;;;;;;;9.07;4.53;;;;;;;;;;5048638;28;20041;-68
2023/08/15 02:13:59;;;;;;;5.15;4.45;;;;;;;;;;5050651;28;20033;-68
2023/08/15 02:16:25;;;;;;;5.03;4.30;;;;;;;;;;5049679;28;20033;-68
2023/08/15 02:18:51;;;;;;;4.97;4.45;;;;;;;;;;5051072;28;20029;-68
2023/08/15 02:21:17;;;;;;;5.38;4.65;;;;;;;;;;5048228;28;20471;-68
2023/08/15 02:23:43;;;;;;;6.50;4.20;;;;;;;;;;5049484;28;20044;-68
2023/08/15 02:26:09;;;;;;;4.85;4.13;;;;;;;;;;5049462;28;20067;-68
2023/08/15 02:28:36;;;;;;;6.10;4.22;;;;;;;;;;5052394;28;20506;-68
2023/08/15 02:31:05;;;;;;;4.57;4.15;;;;;;;;;;5051372;28;20028;-68
2023/08/15 02:33:31;;;;;;;5.95;4.50;;;;;;;;;;5051055;28;20033;-68
2023/08/15 02:36:03;;;;;;;4.32;3.95;;;;;;;;;;5052910;28;20040;-68
2023/08/15 02:38:29;;;;;;;5.97;4.25;;;;;;;;;;5056578;28;20032;-68
2023/08/15 02:40:55;;;;;;;4.13;3.83;;;;;;;;;;5053159;28;20049;-67
2023/08/15 02:43:21;;;;;;;6.32;4.40;;;;;;;;;;5053232;28;20037;-68
2023/08/15 02:45:50;;;;;;;4.68;4.28;;;;;;;;;;5054892;28;20447;-67
2023/08/15 02:48:16;;;;;;;6.10;3.72;;;;;;;;;;5055333;28;20024;-67
2023/08/15 02:50:43;;;;;;;6.63;3.83;;;;;;;;;;5053399;28;20036;-67
2023/08/15 02:53:09;;;;;;;5.47;4.05;;;;;;;;;;5052592;28;20041;-67
2023/08/15 02:55:35;;;;;;;6.90;4.05;;;;;;;;;;5054295;28;20479;-67
2023/08/15 02:58:01;;;;;;;8.55;4.00;;;;;;;;;;5053840;28;20025;-68
2023/08/15 03:00:27;;;;;;;4.13;3.80;;;;;;;;;;5054550;28;20028;-68
2023/08/15 03:02:54;;;;;;;5.32;4.40;;;;;;;;;;5053131;28;20068;-68
2023/08/15 03:05:20;;;;;;;4.82;4.28;;;;;;;;;;5050731;28;20042;-68
2023/08/15 03:07:46;;;;;;;4.82;4.07;;;;;;;;;;5045113;28;20029;-68
2023/08/15 03:10:12;;;;;;;6.05;3.60;;;;;;;;;;5048835;28;20437;-68
2023/08/15 03:12:38;;;;;;;4.10;3.70;;;;;;;;;;5053580;28;20493;-68
2023/08/15 03:15:07;;;;;;;6.28;4.30;;;;;;;;;;5052459;28;20047;-68
2023/08/15 03:17:34;;;;;;;4.47;3.97;;;;;;;;;;5054064;28;20029;-68
2023/08/15 03:20:00;;;;;;;7.07;5.00;;;;;;;;;;5052851;28;20017;-68
2023/08/15 03:22:26;;;;;;;4.55;4.13;;;;;;;;;;5054222;28;20028;-68
2023/08/15 03:24:52;;;;;;;5.05;3.72;;;;;;;;;;5052916;28;20036;-68
2023/08/15 03:27:18;;;;;;;4.18;3.80;;;;;;;;;;5054189;28;20047;-68
2023/08/15 03:29:44;;;;;;;4.82;4.32;;;;;;;;;;5053276;28;20035;-67
2023/08/15 03:35:21;;;;;;;4.65;4.10;;;;;;;;;;5052878;28;20095;-67
2023/08/15 03:37:47;;;;;;;7.90;4.43;;;;;;;;;;5049365;28;20075;-68
2023/08/15 03:40:13;;;;;;;4.65;3.88;;;;;;;;;;5055472;28;20025;-68
2023/08/15 03:42:39;;;;;;;5.75;3.85;;;;;;;;;;5053133;28;20029;-67
2023/08/15 03:45:05;;;;;;;6.85;4.90;;;;;;;;;;5053341;28;20081;-68
2023/08/15 03:47:31;;;;;;;4.82;4.32;;;;;;;;;;5049200;28;20116;-68
2023/08/15 03:49:59;;;;;;;4.55;4.18;;;;;;;;;;5048473;28;20115;-68
2023/08/15 03:52:32;;;;;;;6.53;4.45;;;;;;;;;;5053422;28;20029;-68
2023/08/15 03:54:58;;;;;;;5.65;4.40;;;;;;;;;;5042996;28;20479;-68
2023/08/15 03:57:24;;;;;;;7.25;4.60;;;;;;;;;;5045510;28;20028;-68
2023/08/15 03:59:50;;;;;;;4.47;4.07;;;;;;;;;;5052427;28;20136;-66
2023/08/15 04:02:17;;;;;;;3.85;3.55;;;;;;;;;;5053435;28;20052;-67
2023/08/15 04:04:43;;;;;;;5.03;4.20;;;;;;;;;;5051880;28;20034;-68
2023/08/15 04:07:09;;;;;;;4.28;3.97;;;;;;;;;;5053657;28;20052;-68
2023/08/15 04:09:35;;;;;;;5.15;4.20;;;;;;;;;;5051720;28;20061;-68
2023/08/15 04:12:01;;;;;;;6.55;4.85;;;;;;;;;;5052384;28;20028;-68
2023/08/15 04:14:27;;;;;;;6.05;4.50;;;;;;;;;;5052052;28;20039;-68
2023/08/15 04:16:53;;;;;;;5.13;4.32;;;;;;;;;;5051410;28;20386;-68
2023/08/15 04:19:19;;;;;;;5.28;4.22;;;;;;;;;;5051754;28;20032;-67
2023/08/15 04:21:45;;;;;;;4.65;4.22;;;;;;;;;;5052396;28;20021;-67
2023/08/15 04:24:11;;;;;;;4.85;4.28;;;;;;;;;;5050711;28;20099;-67
2023/08/15 04:26:37;;;;;;;5.80;4.25;;;;;;;;;;5053229;28;20033;-67
2023/08/15 04:29:03;;;;;;;4.65;4.15;;;;;;;;;;5041597;28;20039;-67
2023/08/15 04:31:29;;;;;;;6.68;4.28;;;;;;;;;;5052015;28;20390;-68
2023/08/15 04:33:55;;;;;;;5.18;4.50;;;;;;;;;;5051521;28;20025;-68
2023/08/15 04:36:25;;;;;;;4.72;4.30;;;;;;;;;;5047296;28;20456;-68
2023/08/15 04:38:51;;;;;;;4.93;4.30;;;;;;;;;;5052777;28;20513;-68
2023/08/15 04:41:17;;;;;;;4.55;4.15;;;;;;;;;;5050123;28;20028;-68
2023/08/15 04:43:43;;;;;;;4.93;4.50;;;;;;;;;;5053103;28;20120;-67
2023/08/15 04:46:14;;;;;;;6.18;4.85;;;;;;;;;;5050603;28;20086;-68
2023/08/15 04:48:40;;;;;;;4.75;4.30;;;;;;;;;;5045178;28;20449;-67
2023/08/15 04:51:06;;;;;;;5.38;4.80;;;;;;;;;;5048945;28;20025;-67
2023/08/15 04:53:32;;;;;;;4.95;4.55;;;;;;;;;;5052740;28;20041;-67
2023/08/15 04:55:58;;;;;;;5.18;4.78;;;;;;;;;;5050504;28;20037;-67
2023/08/15 04:58:24;;;;;;;4.88;4.38;;;;;;;;;;5052169;28;20121;-67
2023/08/15 05:00:50;;;;;;;4.88;4.40;;;;;;;;;;5051490;28;20100;-67
2023/08/15 05:03:16;;;;;;;7.25;4.70;;;;;;;;;;5048504;28;20045;-67
2023/08/15 05:05:42;;;;;;;6.30;4.60;;;;;;;;;;5050150;28;20032;-67
2023/08/15 05:08:12;;;;;;;5.25;4.68;;;;;;;;;;5051580;28;20390;-67
2023/08/15 05:10:38;;;;;;;4.45;3.97;;;;;;;;;;5043374;28;20094;-68
2023/08/15 05:13:05;;;;;;;4.15;3.85;;;;;;;;;;5046743;28;20071;-67
2023/08/15 05:15:31;;;;;;;4.95;4.45;;;;;;;;;;5046557;28;20033;-66
2023/08/15 05:17:57;;;;;;;5.78;4.43;;;;;;;;;;5046267;28;20041;-68
2023/08/15 05:20:23;;;;;;;4.95;4.50;;;;;;;;;;5040663;28;20021;-67
2023/08/15 05:22:53;;;;;;;6.30;4.50;;;;;;;;;;5050871;28;20036;-67
2023/08/15 05:25:20;;;;;;;5.03;4.28;;;;;;;;;;5048825;28;20051;-67
2023/08/15 05:27:46;;;;;;;4.93;4.57;;;;;;;;;;5047113;28;20094;-67
2023/08/15 05:30:12;;;;;;;4.88;4.50;;;;;;;;;;5052186;28;20029;-67
2023/08/15 05:32:38;;;;;;;4.65;4.25;;;;;;;;;;5046856;28;20109;-68
2023/08/15 05:35:04;;;;;;;4.88;4.47;;;;;;;;;;5048585;28;20120;-67
2023/08/15 05:37:31;;;;;;;5.90;5.45;;;;;;;;;;5051786;28;20032;-67
2023/08/15 05:39:57;;;;;;;4.28;3.97;;;;;;;;;;5051076;28;20082;-67
2023/08/15 05:42:23;;;;;;;9.43;4.50;;;;;;;;;;5051921;28;20043;-67
2023/08/15 05:44:50;;;;;;;5.35;4.80;;;;;;;;;;5049502;28;20778;-67
2023/08/15 05:47:16;;;;;;;4.53;4.15;;;;;;;;;;5050861;28;20024;-67
2023/08/15 05:49:42;;;;;;;8.68;5.47;;;;;;;;;;5051682;28;20032;-67
2023/08/15 05:52:08;;;;;;;7.25;4.55;;;;;;;;;;5049603;28;20025;-67
2023/08/15 05:54:35;;;;;;;5.00;4.47;;;;;;;;;;5050640;28;20032;-67
2023/08/15 05:57:01;;;;;;;6.05;4.82;;;;;;;;;;5050921;28;20037;-67
2023/08/15 05:59:27;;;;;;;4.63;4.28;;;;;;;;;;5050096;28;20029;-67
2023/08/15 06:01:53;;;;;;;4.88;4.47;;;;;;;;;;5052151;28;20033;-67
2023/08/15 06:04:19;;;;;;;5.57;4.93;;;;;;;;;;5045866;28;20069;-68
2023/08/15 06:06:46;;;;;;;5.13;4.72;;;;;;;;;;5051392;28;20423;-67
2023/08/15 06:09:12;;;;;;;7.05;4.82;;;;;;;;;;5049055;28;20390;-67
2023/08/15 06:11:38;;;;;;;8.55;4.75;;;;;;;;;;5050833;28;20036;-67
2023/08/15 06:14:04;;;;;;;5.78;4.85;;;;;;;;;;5055875;28;20037;-68
2023/08/15 06:16:30;;;;;;;4.75;4.45;;;;;;;;;;5052896;28;20029;-68
2023/08/15 06:18:56;;;;;;;5.28;4.88;;;;;;;;;;5055660;28;20037;-68
2023/08/15 06:21:22;;;;;;;4.95;4.45;;;;;;;;;;5050595;28;20401;-68
2023/08/15 06:23:48;;;;;;;5.22;4.75;;;;;;;;;;5054540;28;20128;-68
2023/08/15 06:26:14;;;;;;;4.97;4.55;;;;;;;;;;5054464;28;20060;-68
2023/08/15 06:28:40;;;;;;;6.63;5.18;;;;;;;;;;5055288;28;20048;-68
2023/08/15 06:31:06;;;;;;;7.10;4.90;;;;;;;;;;5053515;28;20025;-68
2023/08/15 06:33:32;;;;;;;8.10;4.90;;;;;;;;;;5054905;28;20036;-68
2023/08/15 06:35:58;;;;;;;5.28;4.75;;;;;;;;;;5054057;28;20374;-68
2023/08/15 06:38:25;;;;;;;6.57;4.97;;;;;;;;;;5055046;28;20024;-68
2023/08/15 06:40:51;;;;;;;5.72;5.03;;;;;;;;;;5052129;28;20029;-67
2023/08/15 06:43:17;;;;;;;5.90;5.30;;;;;;;;;;5053273;28;20429;-67
2023/08/15 06:45:43;;;;;;;5.13;4.72;;;;;;;;;;5050931;28;20036;-68
2023/08/15 06:48:09;;;;;;;5.55;5.05;;;;;;;;;;5053090;28;20028;-67
2023/08/15 06:50:35;;;;;;;5.20;4.80;;;;;;;;;;5050364;28;20545;-67
2023/08/15 06:53:01;;;;;;;5.43;4.93;;;;;;;;;;5053483;28;20356;-67
2023/08/15 06:55:27;;;;;;;7.05;4.68;;;;;;;;;;5045535;28;20037;-68
2023/08/15 06:57:54;;;;;;;5.95;5.32;;;;;;;;;;5049017;28;20067;-67
2023/08/15 07:00:20;;;;;;;6.70;5.10;;;;;;;;;;5046878;28;20029;-67
2023/08/15 07:02:46;;;;;;;6.93;4.85;;;;;;;;;;5053785;28;20560;-68
2023/08/15 07:05:12;;;;;;;5.75;4.97;;;;;;;;;;5048472;28;20048;-67
2023/08/15 07:07:38;;;;;;;5.82;5.22;;;;;;;;;;5051664;28;20025;-67
2023/08/15 07:10:06;;;;;;;6.03;5.45;;;;;;;;;;5053276;28;20041;-67
2023/08/15 07:12:32;;;;;;;5.03;4.60;;;;;;;;;;5045740;28;20086;-67
2023/08/15 07:14:58;;;;;;;4.93;4.60;;;;;;;;;;5054429;28;20036;-67
2023/08/15 07:17:24;;;;;;;4.50;4.15;;;;;;;;;;5053758;28;20348;-68
2023/08/15 07:19:50;;;;;;;5.32;4.50;;;;;;;;;;5045111;28;20154;-68
2023/08/15 07:22:16;;;;;;;5.07;4.60;;;;;;;;;;5050153;28;20052;-67
2023/08/15 07:24:42;;;;;;;5.20;4.78;;;;;;;;;;5052062;28;20044;-67
2023/08/15 07:27:09;;;;;;;5.93;4.70;;;;;;;;;;5053499;28;20017;-67
2023/08/15 07:29:35;;;;;;;6.68;4.22;;;;;;;;;;5053013;28;20155;-67
2023/08/15 07:32:01;;;;;;;5.30;4.65;;;;;;;;;;5054245;28;20029;-69
2023/08/15 07:34:27;;;;;;;4.75;4.35;;;;;;;;;;5052845;28;20028;-67
2023/08/15 07:36:53;;;;;;;5.55;4.50;;;;;;;;;;5051036;28;20025;-67
2023/08/15 07:39:19;;;;;;;6.82;5.80;;;;;;;;;;5053444;28;20051;-68
2023/08/15 07:41:45;;;;;;;5.13;4.72;;;;;;;;;;5053844;28;20112;-68
2023/08/15 07:44:11;;;;;;;4.90;4.50;;;;;;;;;;5052921;28;20458;-67
2023/08/15 07:46:37;;;;;;;4.70;4.30;;;;;;;;;;5054165;28;20075;-67
2023/08/15 07:49:03;;;;;;;4.50;4.20;;;;;;;;;;5053091;28;20029;-67
2023/08/15 07:51:29;;;;;;;4.45;4.15;;;;;;;;;;5049139;28;20150;-67
2023/08/15 07:53:55;;;;;;;6.50;4.18;;;;;;;;;;5052717;28;20025;-67
2023/08/15 07:56:21;;;;;;;5.00;4.18;;;;;;;;;;5052789;28;20017;-67
2023/08/15 07:58:47;;;;;;;4.50;4.10;;;;;;;;;;5052159;28;20053;-68
2023/08/15 08:01:13;;;;;;;6.78;4.18;;;;;;;;;;5052698;28;20041;-68
2023/08/15 08:03:42;;;;;;;4.05;3.75;;;;;;;;;;5052307;28;20063;-68
2023/08/15 08:06:08;;;;;;;4.80;4.00;;;;;;;;;;5053576;28;20013;-68
2023/08/15 08:08:34;;;;;;;4.10;3.70;;;;;;;;;;5049289;28;20031;-68
2023/08/15 08:11:00;;;;;;;9.45;4.20;;;29.40;99.90;;;;;;5053547;28;20032;-68
2023/08/15 08:13:26;;;;;;;4.03;3.63;;;28.60;99.90;;;;;;5049852;28;20033;-68
2023/08/15 08:15:51;;;;;;;4.63;4.20;;;28.60;99.90;;;;;;5053338;28;20013;-67
2023/08/15 08:18:17;;;;;;;5.40;4.32;;;28.60;99.90;;;;;;5051971;28;20056;-67
2023/08/15 08:20:42;;;;;;;7.68;4.28;;;28.70;99.90;;;;;;5053583;28;20060;-67
2023/08/15 08:23:08;;;;;;;4.40;4.10;;;28.80;99.90;;;;;;5050978;28;20025;-67
2023/08/15 08:25:34;;;;;;;4.90;4.07;;;28.80;99.90;;;;;;5047947;28;20029;-67
2023/08/15 08:28:00;;;;;;;6.05;4.05;;;28.80;99.90;;;;;;5051993;28;20032;-67
2023/08/15 08:30:26;;;;;;;5.13;3.92;;;28.90;99.90;;;;;;5051160;28;20033;-67
2023/08/15 08:32:51;;;;;;;4.47;4.13;;;28.90;99.90;;;;;;5048103;28;20056;-67
2023/08/15 08:35:17;;;;;;;6.15;3.85;;;29.00;99.90;;;;;;5041561;28;20087;-67
2023/08/15 08:37:45;;;;;;;4.00;3.70;;;29.00;99.90;;;;;;5052124;28;20036;-67
2023/08/15 08:40:14;;;;;;;4.45;3.90;;;29.00;99.90;;;;;;5052841;28;20029;-67
2023/08/15 08:42:40;;;;;;;4.30;3.80;;;29.10;99.90;;;;;;5052732;28;20366;-68
2023/08/15 08:45:08;;;;;;;4.70;4.30;;;;;;;;;;5050410;28;20041;-68
2023/08/15 08:47:34;;;;;;;5.22;4.60;;;;;;;;;;5051610;28;20606;-68
2023/08/15 08:50:01;;;;;;;4.72;4.25;;;;;;;;;;5053970;28;20075;-67
2023/08/15 08:52:31;;;;;;;5.65;5.00;;;;;;;;;;5052639;28;20037;-67
2023/08/15 08:54:57;;;;;;;3.60;3.40;;;;;;;;;;5050501;28;20021;-67
2023/08/15 08:57:23;;;;;;;4.55;4.25;;;;;;;;;;5052021;28;20052;-68
2023/08/15 08:59:51;;;;;;;6.25;4.47;;;;;;;;;;5050747;28;20414;-67
2023/08/15 09:05:27;;;;;;;3.85;3.55;;;;;;;;;;5052111;28;20430;-67
2023/08/15 09:07:54;;;;;;;3.88;3.58;;;29.10;99.90;;;;;;5050773;28;20528;-67
2023/08/15 09:10:22;;;;;;;4.95;3.90;;;29.40;99.90;;;;;;5049212;28;20021;-67
2023/08/15 09:12:48;;;;;;;6.28;3.83;;;29.40;99.90;;;;;;5051295;28;20071;-68
2023/08/15 09:15:14;;;;;;;4.72;3.60;;;29.40;99.90;;;;;;5050085;28;20025;-67
2023/08/15 09:17:40;;;;;;;4.45;3.40;;;29.50;99.90;;;;;;5051035;28;20033;-68
2023/08/15 09:20:14;;;;;;;3.92;3.63;;;29.60;99.90;;;;;;5051087;28;20167;-67
2023/08/15 09:22:45;;;;;;;4.15;3.85;;;29.50;99.90;;;;;;5049507;28;20038;-67
2023/08/15 09:25:12;;;;;;;4.40;3.92;;;29.60;99.90;;;;;;5052096;28;20037;-67
2023/08/15 09:27:40;;;;;;;3.95;3.58;;;29.50;99.90;;;;;;5049808;28;20383;-67
2023/08/15 09:30:11;;;;;;;4.00;3.65;;;29.60;99.90;;;;;;5040968;28;20075;-67
2023/08/15 09:32:42;;;;;;;7.18;3.83;;;29.60;99.90;;;;;;5048804;28;20432;-68
2023/08/15 09:35:15;;;;;;;3.95;3.55;;;29.70;99.90;;;;;;5049354;28;20029;-68
2023/08/15 09:37:47;;;;;;;5.28;4.60;;;29.70;99.90;;;;;;5049565;28;20013;-67
2023/08/15 09:40:24;;;;;;;5.72;4.63;;;29.80;99.90;;;;;;5043385;28;20030;-67
2023/08/15 09:42:50;;;;;;;4.90;4.35;;;;;;;;;;5038548;28;20060;-67
2023/08/15 09:45:16;;;;;;;5.20;4.68;;;;;;;;;;5036919;28;20029;-67
2023/08/15 09:48:08;;;;;;;4.55;4.18;;;;;;;;;;5044220;28;20036;-67
2023/08/15 09:50:34;;;;;;;5.15;4.68;;;;;;;;;;5040774;28;20024;-68
2023/08/15 09:53:01;;;;;;;5.97;4.65;;;;;;;;;;5051712;28;20029;-67
2023/08/15 09:55:28;;;;;;;4.60;4.20;;;;;;;;;;5049900;28;20024;-67
2023/08/15 09:57:54;;;;;;;7.10;5.28;;;29.90;99.90;;;;;;5050667;28;20025;-67
2023/08/15 10:00:20;;;;;;;4.93;4.43;;;30.20;99.90;;;;;;5050410;28;20390;-67
2023/08/15 10:02:46;;;;;;;5.43;4.93;;;;;;;;;;5052751;28;20534;-67
2023/08/15 10:05:13;;;;;;;5.85;4.63;;;;;;;;;;5049817;28;20124;-67
2023/08/15 10:07:40;;;;;;;5.00;4.70;;;;;;;;;;5048441;28;20032;-67
2023/08/15 10:10:06;;;;;;;5.22;4.75;;;;;;;;;;5046549;28;20098;-67
2023/08/15 10:12:32;;;;;;;5.43;4.10;;;;;;;;;;5050757;28;20139;-67
2023/08/15 10:15:08;;;;;;;4.95;4.57;;;;;;;;;;5050496;28;20032;-67
2023/08/15 10:17:35;;;;;;;6.63;5.03;;;;;;;;;;5048254;28;20029;-67
2023/08/15 10:20:02;;;;;;;5.43;4.80;;;;;;;;;;5050966;28;20029;-67
2023/08/15 10:22:30;;;;;;;4.75;4.35;;;;;;;;;;5048766;28;20108;-67
2023/08/15 10:25:04;;;;;;;5.35;4.75;;;;;;;;;;5050249;28;20036;-67
2023/08/15 10:27:31;;;;;;;5.40;4.80;;;;;;;;;;5039148;28;20029;-67
2023/08/15 10:30:03;;;;;;;4.97;4.35;;;;;;;;;;5050377;28;20413;-67
2023/08/15 10:32:33;;;;;;;6.72;4.53;;;;;;;;;;5049551;28;20028;-67
2023/08/15 10:35:01;;;;;;;6.28;4.35;;;30.30;99.90;;;;;;5049745;28;20544;-67
2023/08/15 10:37:38;;;;;;;4.72;4.32;;;31.00;99.90;;;;;;5051576;28;20099;-67
2023/08/15 10:40:12;;;;;;;5.13;4.63;;;30.90;99.90;;;;;;5037460;28;20029;-67
2023/08/15 10:43:02;;;;;;;6.97;5.07;;;31.00;99.90;;;;;;5050644;28;20111;-67
2023/08/15 10:45:41;;;;;;;4.78;4.30;;;31.00;99.90;;;;;;5048932;28;20460;-68
2023/08/15 10:48:08;;;;;;;5.10;4.40;;;31.10;99.90;;;;;;5051281;28;20035;-67
2023/08/15 10:50:35;;;;;;;5.63;5.13;;;31.20;99.90;;;;;;5050297;28;20028;-67
2023/08/15 10:53:03;;;;;;;6.22;5.18;;;31.20;99.90;;;;;;5050967;28;20390;-67
2023/08/15 10:55:33;;;;;;;7.10;6.38;;;31.30;99.90;;;;;;5048439;28;20079;-67
2023/08/15 10:58:03;;;;;;;6.82;4.40;;;31.30;99.90;;;;;;5053398;28;20111;-67
2023/08/15 11:00:30;;;;;;;4.57;4.28;;;31.30;99.90;;;;;;5054500;28;20099;-67
2023/08/15 11:02:57;;;;;;;6.20;5.20;;;31.30;99.90;;;;;;5053569;28;20120;-67
2023/08/15 11:05:23;;;;;;;4.55;4.22;;;31.40;99.90;;;;;;5053400;28;20049;-67
2023/08/15 11:07:48;;;;;;;6.30;5.78;;;31.40;99.90;;;;;;5054090;28;20078;-67
2023/08/15 11:10:14;;;;;;;8.60;5.30;;;31.40;99.90;;;;;;5054462;28;20429;-67
2023/08/15 11:12:48;;;;;;;6.93;5.07;;;31.60;99.90;;;;;;5053421;28;20475;-67
2023/08/15 11:15:14;;;;;;;5.75;4.82;;;31.80;99.90;;;;;;5047860;28;20022;-68
2023/08/15 11:17:44;;;;;;;6.07;4.95;;;31.70;99.90;;;;;;5050645;28;20052;-68
2023/08/15 11:20:10;;;;;;;5.97;4.45;;;31.70;99.90;;;;;;5052050;28;20032;-68
2023/08/15 11:22:36;;;;;;;4.80;4.40;;;31.90;99.90;;;;;;5054316;28;20037;-68
2023/08/15 11:25:02;;;;;;;4.28;3.97;;;32.00;99.90;;;;;;5050305;28;20040;-67
2023/08/15 11:27:28;;;;;;;6.38;5.10;;;32.20;99.90;;;;;;5048730;28;20406;-68
2023/08/15 11:29:58;;;;;;;5.28;4.90;;;32.10;99.90;;;;;;5052078;28;20025;-68
2023/08/15 11:32:24;;;;;;;7.10;5.05;;;32.30;99.90;;;;;;5051466;28;20158;-68
2023/08/15 11:34:50;;;;;;;6.38;5.32;;;32.30;99.90;;;;;;5054434;28;20033;-68
2023/08/15 11:37:17;;;;;;;5.72;4.63;;;32.50;99.90;;;;;;5050943;28;20036;-68
2023/08/15 11:39:50;;;;;;;8.63;4.03;;;32.60;99.90;;;;;;5046516;28;20029;-68
2023/08/15 11:42:16;;;;;;;5.53;4.53;;;32.80;99.90;;;;;;5045567;28;20376;-68
2023/08/15 11:44:41;;;;;;;4.97;4.60;;;32.90;99.90;;;;;;5051095;28;20055;-68
2023/08/15 11:47:07;;;;;;;5.20;4.88;;;32.90;99.90;;;;;;5054014;28;20032;-68
2023/08/15 11:49:33;;;;;;;4.90;4.50;;;33.00;99.90;;;;;;5050905;28;20119;-68
2023/08/15 11:52:04;;;;;;;4.53;4.22;;;33.30;99.90;;;;;;5053248;28;20029;-68
2023/08/15 11:54:30;;;;;;;6.57;5.18;;;33.60;99.90;;;;;;5042300;28;20037;-67
2023/08/15 11:56:55;;;;;;;10.80;5.30;;;34.00;99.90;;;;;;5050788;28;20086;-67
2023/08/15 11:59:23;;;;;;;5.85;5.28;;;;;;;;;;5053686;28;20035;-67
2023/08/15 12:01:49;;;;;;;4.95;4.65;;;;;;;;;;5046854;28;20025;-67
2023/08/15 12:04:18;;;;;;;6.63;6.03;;;40.80;99.90;;;;;;5053058;28;20487;-68
2023/08/15 12:06:44;;;;;;;6.70;6.30;;;40.90;99.90;;;;;;5053432;28;20029;-68
2023/08/15 12:09:11;;;;;;;6.28;5.63;;;40.90;99.90;;;;;;5051092;28;20045;-67
2023/08/15 12:11:37;;;;;;;6.97;6.40;;;41.30;99.90;;;;;;5053077;28;20033;-68
2023/08/15 12:14:03;;;;;;;7.85;7.30;;;40.50;99.90;;;;;;5052204;28;20159;-68
2023/08/15 12:16:30;;;;;;;9.07;7.03;;;40.00;99.90;;;;;;5050660;28;20131;-68
2023/08/15 12:18:57;;;;;;;6.75;6.22;;;40.20;99.90;;;;;;5052506;28;20031;-68
2023/08/15 12:21:22;;;;;;;7.07;6.45;;;41.00;99.90;;;;;;5052009;28;20386;-67
2023/08/15 12:23:48;;;;;;;8.15;7.35;;;42.30;99.90;;;;;;5049341;28;20036;-67
2023/08/15 12:26:14;;;;;;;7.07;6.68;;;43.50;99.90;;;;;;5051284;28;20021;-66
2023/08/15 12:28:40;;;;;;;7.65;6.95;;;44.40;99.90;;;;;;5053250;28;20116;-67
2023/08/15 12:31:06;;;;;;;8.50;7.78;;;44.80;99.90;;;;;;5053255;28;20167;-66
2023/08/15 12:33:33;;;;;;;7.55;7.00;;;44.60;99.90;;;;;;5053332;28;20021;-66
2023/08/15 12:36:02;;;;;;;7.00;6.50;;;44.70;99.90;;;;;;5049413;28;20029;-67
2023/08/15 12:38:29;;;;;;;7.45;6.95;;;45.00;99.90;;;;;;5052599;28;20032;-66
2023/08/15 12:40:55;;;;;;;7.53;7.03;;;44.90;99.90;;;;;;5051105;28;20025;-67
2023/08/15 12:43:21;;;;;;;7.03;6.63;;;44.50;99.90;;;;;;5052828;28;20541;-66
2023/08/15 12:45:47;;;;;;;7.18;6.68;;;44.30;99.90;;;;;;5050010;28;20041;-67
2023/08/15 12:48:14;;;;;;;7.55;7.05;;;43.30;99.90;;;;;;5052665;28;20105;-66
2023/08/15 12:50:40;;;;;;;7.90;7.20;;;42.70;99.90;;;;;;5051947;28;20386;-67
2023/08/15 12:53:06;;;;;;;7.80;7.30;;;41.80;99.90;;;;;;5052097;28;20021;-66
2023/08/15 12:55:32;;;;;;;7.10;6.70;;;41.50;99.90;;;;;;5046837;28;20485;-67
2023/08/15 12:57:58;;;;;;;7.18;6.53;;;41.20;99.90;;;;;;5052568;28;20056;-67
2023/08/15 13:00:24;;;;;;;7.80;7.20;;;40.50;99.90;;;;;;5052631;28;20478;-67
2023/08/15 13:02:50;;;;;;;7.30;6.90;;;40.10;99.90;;;;;;5051388;28;20025;-67
2023/08/15 13:05:16;;;;;;;7.15;6.53;;;40.10;99.90;;;;;;5050712;28;20132;-67
2023/08/15 13:07:43;;;;;;;7.80;7.20;;;39.60;99.90;;;;;;5052720;28;20044;-67
2023/08/15 13:10:09;;;;;;;7.20;6.70;;;39.50;99.90;;;;;;5052199;28;20059;-67
2023/08/15 13:12:34;;;;;;;6.90;6.50;;;39.60;99.90;;;;;;5052363;28;20044;-67
2023/08/15 13:15:00;;;;;;;7.65;7.10;;;40.00;99.90;;;;;;5048803;28;20040;-68
2023/08/15 13:17:26;;;;;;;7.75;7.13;;;39.80;99.90;;;;;;5051406;28;20028;-68
2023/08/15 13:19:52;;;;;;;7.35;6.95;;;39.70;99.90;;;;;;5051687;28;20037;-67
2023/08/15 13:22:18;;;;;;;7.32;6.78;;;39.50;99.90;;;;;;5050872;28;20107;-66
2023/08/15 13:24:44;;;;;;;7.53;7.03;;;39.10;99.90;;;;;;5049277;28;20116;-67
2023/08/15 13:27:10;;;;;;;7.70;7.10;;;39.10;99.90;;;;;;5051403;28;20116;-67
2023/08/15 13:29:36;;;;;;;6.43;6.10;;;39.20;99.90;;;;;;5051724;28;20033;-67
2023/08/15 13:35:30;;;;;;;6.70;6.20;;;39.40;99.90;;;;;;5044536;28;20150;-67
2023/08/15 13:37:56;;;;;;;8.18;6.07;;;39.80;99.90;;;;;;5050591;28;20031;-67
2023/08/15 13:40:22;;;;;;;7.07;6.38;;;40.00;99.90;;;;;;5039086;28;20927;-67
2023/08/15 13:42:47;;;;;;;6.68;6.28;;;40.10;99.90;;;;;;5049550;28;20037;-67
2023/08/15 13:45:14;;;;;;;6.93;6.53;;;40.10;99.90;;;;;;5048480;28;20525;-67
2023/08/15 13:47:40;;;;;;;7.05;6.55;;;40.00;99.90;;;;;;5043710;28;20025;-67
2023/08/15 13:50:06;;;;;;;6.63;6.22;;;39.80;99.90;;;;;;5047534;28;20029;-67
2023/08/15 13:52:33;;;;;;;6.50;6.00;;;40.10;99.90;;;;;;5042902;28;20037;-67
2023/08/15 13:54:58;;;;;;;6.80;6.30;;;40.30;99.90;;;;;;5044750;28;20025;-67
2023/08/15 13:57:24;;;;;;;6.70;6.20;;;41.00;99.90;;;;;;5051633;28;20051;-67
2023/08/15 13:59:49;;;;;;;6.65;6.25;;;42.10;99.90;;;;;;5050624;28;20053;-67
2023/08/15 14:02:15;;;;;;;7.07;6.57;;;44.30;99.90;;;;;;5051904;28;20025;-67
2023/08/15 14:04:41;;;;;;;6.47;6.07;;;45.50;99.90;;;;;;5044792;28;20053;-67
2023/08/15 14:07:06;;;;;;;6.72;6.32;;;45.80;99.90;;;;;;5049745;28;20029;-67